Weather at Québec/Lac St-Augustin Seaplane Base

Public forecast

Using degrees Celsius for public forecast. Weather courtesy of forecast.io.

Closest aviation weather report (METAR) to Québec/Lac St-Augustin Seaplane Base

Closest report is Quebec Jean Lesage International Airport, 2.4 nm (4.4 km) N.

2024/07/22 02:00 (retrieved 19 minutes ago)

CYQB 220200Z 27006KT 15SM SKC 15/11 A3000 RMK SLP161

Closest aviation forecast (TAF) to Québec/Lac St-Augustin Seaplane Base

Forecast is more than 6 hours old.

Closest forecast is Roberval Airport, 111.9 nm (207.2 km) NNW.

2024/07/21 20:00 (retrieved 6 hours ago)

TAF CYRJ 211940Z 2120/2202 31010G20KT P6SM BKN040 RMK NXT FCST BY 221200Z